Time;durP1;ratioP1;P1;durP2;ratioP2;P2;SDS_P1;SDS_P2;PMS_P1;PMS_P2;Temp;Humidity;BMP_temperature;BMP_pressure;BME280_temperature;BME280_humidity;BME280_pressure;Samples;Min_cycle;Max_cycle;Signal;HPM_P1;HPM_P2
2022/10/23 00:00:09;;;;;;;10.97;2.10;;;;;;;14.60;63.38;101388.53;4902254;28;97601;-46
2022/10/23 00:02:34;;;;;;;5.83;2.30;;;;;;;14.59;63.23;101383.50;4901948;28;97846;-46
2022/10/23 00:05:00;;;;;;;4.70;2.13;;;;;;;14.53;63.21;101386.25;4903896;28;100165;-46
2022/10/23 00:07:25;;;;;;;2.70;2.10;;;;;;;14.51;63.16;101386.00;4902944;28;97230;-46
2022/10/23 00:09:51;;;;;;;3.70;2.00;;;;;;;14.49;63.13;101384.97;4899123;28;97443;-46
2022/10/23 00:12:16;;;;;;;3.47;1.83;;;;;;;14.44;62.93;101386.47;4904566;28;97225;-47
2022/10/23 00:14:41;;;;;;;3.40;2.03;;;;;;;14.39;63.01;101378.94;4903200;28;96757;-47
2022/10/23 00:17:09;;;;;;;2.00;1.50;;;;;;;14.35;63.07;101386.72;4907420;28;97616;-46
2022/10/23 00:19:34;;;;;;;8.40;2.40;;;;;;;14.32;63.28;101386.97;4905220;28;97062;-46
2022/10/23 00:22:00;;;;;;;7.27;2.10;;;;;;;14.31;63.37;101391.75;4902925;28;97265;-46
2022/10/23 00:24:25;;;;;;;2.70;1.80;;;;;;;14.32;63.38;101392.50;4905881;28;97352;-48
2022/10/23 00:26:50;;;;;;;5.10;2.30;;;;;;;14.32;63.46;101387.72;4905078;28;104345;-46
2022/10/23 00:29:16;;;;;;;1.23;1.13;;;;;;;14.31;63.29;101386.19;4905149;28;97552;-45
2022/10/23 00:31:41;;;;;;;7.27;1.63;;;;;;;14.30;63.19;101383.94;4904697;28;97185;-46
2022/10/23 00:34:07;;;;;;;4.17;1.50;;;;;;;14.26;63.34;101384.91;4900057;28;97075;-46
2022/10/23 00:36:32;;;;;;;2.20;2.00;;;;;;;14.27;63.28;101397.50;4902523;28;96983;-45
2022/10/23 00:38:58;;;;;;;3.70;1.60;;;;;;;14.24;63.26;101387.41;4903193;28;97630;-46
2022/10/23 00:41:27;;;;;;;4.03;1.97;;;;;;;14.23;63.31;101385.16;4904654;28;97160;-46
2022/10/23 00:44:22;;;;;;;5.63;1.93;;;;;;;14.23;63.41;101387.94;4903508;28;97350;-45
2022/10/23 00:46:47;;;;;;;6.90;2.20;;;;;;;14.19;63.44;101388.19;4880567;28;97109;-46
2022/10/23 00:49:14;;;;;;;1.83;1.40;;;;;;;14.19;63.39;101390.19;4901317;28;97540;-45
2022/10/23 00:51:43;;;;;;;1.67;1.57;;;;;;;14.17;63.24;101389.94;4900382;28;97255;-44
2022/10/23 00:54:11;;;;;;;14.63;2.00;;;;;;;14.16;63.40;101388.41;4903479;28;96911;-46
2022/10/23 00:56:39;;;;;;;9.73;2.00;;;;;;;14.16;63.44;101396.72;4903129;28;96928;-47
2022/10/23 00:59:05;;;;;;;5.73;2.23;;;;;;;14.15;63.52;101392.44;4904415;28;97796;-44
2022/10/23 01:01:30;;;;;;;3.87;1.70;;;;;;;14.15;63.51;101386.91;4904698;28;96997;-46
2022/10/23 01:03:55;;;;;;;2.63;1.90;;;;;;;14.16;63.41;101382.88;4899349;28;97103;-46
2022/10/23 01:06:33;;;;;;;2.40;1.33;;;;;;;14.13;63.33;101375.59;4899329;28;97158;-45
2022/10/23 01:09:16;;;;;;;1.67;1.57;;;;;;;14.11;63.54;101381.59;4904500;28;101244;-46
2022/10/23 01:11:49;;;;;;;2.30;1.30;;;;;;;14.09;63.45;101373.03;4903914;28;100215;-46
2022/10/23 01:14:34;;;;;;;4.73;1.70;;;;;;;14.09;63.66;101373.03;4900373;28;96905;-45
2022/10/23 01:17:08;;;;;;;1.90;1.70;;;;;;;14.08;63.29;101368.00;4900875;28;96871;-46
2022/10/23 01:20:18;;;;;;;1.73;1.60;;;;;;;14.07;63.55;101367.25;4904243;28;100577;-46
2022/10/23 01:23:20;;;;;;;4.20;1.80;;;;;;;14.03;63.62;101361.22;4861815;28;100070;-46
2022/10/23 01:26:14;;;;;;;4.73;1.67;;;;;;;13.98;63.82;101361.94;4861445;28;97409;-46
2022/10/23 01:29:02;;;;;;;1.23;1.10;;;;;;;13.99;64.05;101371.00;4899421;28;97159;-46
2022/10/23 01:31:45;;;;;;;2.40;1.67;;;;;;;14.01;63.99;101363.72;4901561;28;101752;-46
2022/10/23 01:34:14;;;;;;;4.43;1.63;;;;;;;14.03;63.48;101358.44;4905181;28;97099;-47
2022/10/23 01:36:43;;;;;;;1.67;1.57;;;;;;;14.01;63.55;101357.41;4894841;28;97114;-46
2022/10/23 01:39:39;;;;;;;3.73;1.33;;;;;;;13.97;63.80;101357.69;4902671;28;97432;-46
2022/10/23 01:42:11;;;;;;;2.33;1.50;;;;;;;13.96;63.66;101352.63;4902208;28;102006;-45
2022/10/23 01:44:51;;;;;;;1.80;1.43;;;;;;;13.94;63.75;101347.59;4901425;28;97222;-46
2022/10/23 01:47:19;;;;;;;1.60;1.50;;;;;;;13.92;63.78;101361.16;4900317;28;96957;-45
2022/10/23 01:49:47;;;;;;;11.00;1.33;;;;;;;13.92;63.88;101361.16;4902012;28;97085;-46
2022/10/23 01:52:15;;;;;;;5.50;1.60;;;;;;;13.93;63.96;101361.94;4902144;28;98957;-46
2022/10/23 01:54:43;;;;;;;4.60;1.90;;;;;;;13.93;63.69;101353.63;4903270;28;96857;-45
2022/10/23 01:57:13;;;;;;;4.20;1.50;;;;;;;13.93;63.78;101351.63;4904694;28;97128;-46
2022/10/23 01:59:46;;;;;;;2.13;1.67;;;;;;;13.93;63.85;101348.09;4902748;28;97568;-45
2022/10/23 02:02:14;;;;;;;9.97;2.30;;;;;;;13.92;63.75;101347.34;4902907;28;100516;-46
2022/10/23 02:04:44;;;;;;;4.10;1.80;;;;;;;13.91;63.62;101347.84;4898880;28;103577;-45
2022/10/23 02:07:10;;;;;;;4.60;1.33;;;;;;;13.85;63.52;101350.56;4900316;28;97554;-46
2022/10/23 02:09:35;;;;;;;1.83;1.43;;;;;;;13.84;63.67;101345.56;4901617;28;97333;-45
2022/10/23 02:12:08;;;;;;;4.17;1.67;;;;;;;13.80;63.54;101345.03;4903391;28;96839;-46
2022/10/23 02:14:49;;;;;;;1.70;1.60;;;;;;;13.78;63.82;101356.59;4906626;28;96825;-46
2022/10/23 02:17:34;;;;;;;2.70;1.50;;;;;;;13.72;64.03;101344.75;4902770;28;96713;-46
2022/10/23 02:20:29;;;;;;;5.13;1.63;;;;;;;13.65;64.04;101338.94;4906184;28;97007;-46
2022/10/23 02:23:06;;;;;;;2.00;1.80;;;;;;;13.65;63.71;101336.19;4889070;28;97408;-46
2022/10/23 02:25:53;;;;;;;3.33;1.63;;;;;;;13.60;63.95;101334.16;4902193;28;101576;-46
2022/10/23 02:28:24;;;;;;;1.80;1.70;;;;;;;13.56;63.81;101344.69;4904867;28;97221;-45
2022/10/23 02:30:50;;;;;;;1.97;1.87;;;;;;;13.53;64.04;101338.91;4905054;28;97350;-45
2022/10/23 02:33:17;;;;;;;10.17;2.00;;;;;;;13.54;64.08;101340.41;4908448;28;97105;-46
2022/10/23 02:35:43;;;;;;;3.73;1.73;;;;;;;13.53;64.02;101332.59;4900526;28;98062;-46
2022/10/23 02:38:27;;;;;;;1.40;1.40;;;;;;;13.52;64.06;101328.31;4903377;28;97514;-46
2022/10/23 02:40:56;;;;;;;3.47;1.83;;;;;;;13.48;63.64;101323.03;4906442;28;97046;-46
2022/10/23 02:43:30;;;;;;;9.93;1.90;;;;;;;13.44;63.81;101327.28;4904070;28;97299;-46
2022/10/23 02:46:07;;;;;;;9.90;1.50;;;;;;;13.39;63.81;101328.78;4903845;28;97350;-46
2022/10/23 02:48:40;;;;;;;1.93;1.80;;;;;;;13.32;63.95;101343.03;4898961;28;97124;-46
2022/10/23 02:51:16;;;;;;;5.00;1.87;;;;;;;13.31;63.92;101332.50;4902914;28;97251;-46
2022/10/23 02:53:41;;;;;;;4.93;1.80;;;;;;;13.29;63.81;101326.72;4904840;28;96907;-46
2022/10/23 02:56:12;;;;;;;3.27;1.47;;;;;;;13.24;63.96;101324.66;4905207;28;97514;-46
2022/10/23 02:58:53;;;;;;;2.77;1.50;;;;;;;13.21;64.07;101337.47;4902142;28;97136;-46
2022/10/23 03:01:25;;;;;;;1.70;1.60;;;;;;;13.20;64.14;101329.66;4905229;28;97167;-46
2022/10/23 03:03:54;;;;;;;6.60;1.87;;;;;;;13.20;64.18;101332.44;4906402;28;97456;-46
2022/10/23 03:06:21;;;;;;;5.67;1.80;;;;;;;13.22;64.01;101329.94;4902327;28;97407;-46
2022/10/23 03:09:13;;;;;;;5.60;1.70;;;;;;;13.19;64.03;101326.16;4903483;28;97080;-45
2022/10/23 03:11:38;;;;;;;3.77;1.53;;;;;;;13.16;63.92;101324.38;4902109;28;102407;-46
2022/10/23 03:14:03;;;;;;;4.67;1.70;;;;;;;13.17;63.94;101314.84;4903777;28;99301;-46
2022/10/23 03:16:29;;;;;;;4.03;1.70;;;;;;;13.15;63.82;101313.84;4904168;28;97259;-45
2022/10/23 03:18:54;;;;;;;7.53;1.83;;;;;;;13.13;63.77;101303.25;4899978;28;107136;-46
2022/10/23 03:21:20;;;;;;;3.43;1.67;;;;;;;13.10;63.82;101298.75;4904441;28;96816;-46
2022/10/23 03:23:45;;;;;;;3.40;1.93;;;;;;;13.09;63.76;101299.22;4903793;28;97086;-45
2022/10/23 03:26:11;;;;;;;2.90;1.43;;;;;;;13.02;63.68;101292.13;4904197;28;106179;-46
2022/10/23 03:28:36;;;;;;;7.10;1.80;;;;;;;12.94;63.84;101293.06;4905629;28;101545;-46
2022/10/23 03:31:02;;;;;;;6.17;1.90;;;;;;;12.89;63.73;101300.06;4905348;28;106735;-45
2022/10/23 03:33:29;;;;;;;2.40;1.70;;;;;;;12.85;63.96;101299.53;4906511;28;100559;-46
2022/10/23 03:35:54;;;;;;;2.13;1.80;;;;;;;12.79;64.05;101296.75;4902032;28;96901;-45
2022/10/23 03:38:19;;;;;;;4.33;1.70;;;;;;;12.76;64.17;101297.72;4898905;28;110677;-46
2022/10/23 03:40:45;;;;;;;3.30;1.60;;;;;;;12.74;64.11;101300.22;4903946;28;97268;-46
2022/10/23 03:43:10;;;;;;;2.53;1.20;;;;;;;12.73;63.95;101297.97;4899998;28;100402;-46
2022/10/23 03:45:37;;;;;;;4.93;1.77;;;;;;;12.69;64.21;101294.66;4902997;28;97016;-46
2022/10/23 03:48:05;;;;;;;1.73;1.63;;;;;;;12.64;64.25;101290.63;4905803;28;97446;-46
2022/10/23 03:50:31;;;;;;;4.20;1.80;;;;;;;12.60;64.14;101279.03;4904677;28;97028;-45
2022/10/23 03:52:56;;;;;;;6.23;2.13;;;;;;;12.54;64.21;101278.25;4902888;28;98568;-46
2022/10/23 03:55:24;;;;;;;1.80;1.70;;;;;;;12.54;64.13;101272.72;4905823;28;107927;-46
2022/10/23 03:57:49;;;;;;;4.57;1.60;;;;;;;12.55;64.38;101281.75;4904197;28;97066;-46
2022/10/23 04:00:15;;;;;;;2.10;1.60;;;;;;;12.55;64.34;101281.75;4897833;28;105207;-46
2022/10/23 04:02:40;;;;;;;1.53;1.43;;;;;;;12.56;64.24;101281.25;4904639;28;97451;-46
2022/10/23 04:05:06;;;;;;;1.60;1.50;;;;;;;12.53;63.97;101273.97;4904557;28;112048;-45
2022/10/23 04:07:31;;;;;;;4.83;1.60;;;;;;;12.48;63.95;101271.94;4903184;28;97365;-46
2022/10/23 04:09:56;;;;;;;5.40;1.57;;;;;;;12.44;64.12;101271.41;4904438;28;104899;-46
2022/10/23 04:12:22;;;;;;;9.87;1.50;;;;;;;12.41;64.17;101271.59;4902654;28;110954;-46
2022/10/23 04:14:47;;;;;;;7.33;1.50;;;;;;;12.38;64.32;101272.59;4900603;28;97702;-46
2022/10/23 04:17:13;;;;;;;2.30;1.40;;;;;;;12.38;64.25;101275.34;4902488;28;109830;-46
2022/10/23 04:19:38;;;;;;;2.30;1.23;;;;;;;12.36;64.59;101275.09;4907325;28;97200;-46
2022/10/23 04:22:03;;;;;;;2.20;1.43;;;;;;;12.33;64.14;101268.53;4897494;28;112979;-46
2022/10/23 04:24:29;;;;;;;3.23;1.77;;;;;;;12.34;64.48;101272.81;4898725;28;97028;-45
2022/10/23 04:26:54;;;;;;;3.63;2.03;;;;;;;12.30;64.41;101288.06;4903613;28;97772;-46
2022/10/23 04:29:22;;;;;;;4.90;1.60;;;;;;;12.31;64.33;101281.31;4902722;28;97082;-46
2022/10/23 04:31:48;;;;;;;7.93;1.50;;;;;;;12.33;64.56;101276.06;4902504;28;100634;-46
2022/10/23 04:34:13;;;;;;;2.50;1.40;;;;;;;12.33;64.37;101268.53;4906357;28;97294;-46
2022/10/23 04:36:38;;;;;;;2.50;1.17;;;;;;;12.34;64.40;101280.34;4904040;28;97180;-44
2022/10/23 04:39:04;;;;;;;2.93;1.40;;;;;;;12.33;64.26;101278.81;4898675;28;114436;-45
2022/10/23 04:41:29;;;;;;;7.63;2.20;;;;;;;12.35;64.36;101279.09;4902758;28;97144;-46
2022/10/23 04:43:54;;;;;;;6.00;1.90;;;;;;;12.32;64.38;101275.28;4901966;28;97014;-46
2022/10/23 04:46:20;;;;;;;5.20;1.77;;;;;;;12.32;64.20;101280.09;4901903;28;97313;-46
2022/10/23 04:48:45;;;;;;;4.73;1.97;;;;;;;12.31;64.18;101267.50;4904342;28;96999;-46
2022/10/23 04:51:10;;;;;;;3.10;1.70;;;;;;;12.28;64.23;101277.53;4904961;28;96876;-46
2022/10/23 04:53:37;;;;;;;7.93;1.87;;;;;;;12.27;64.43;101286.28;4899428;28;97125;-46
2022/10/23 04:56:03;;;;;;;1.70;1.60;;;;;;;12.28;64.27;101279.53;4905295;28;96966;-44
2022/10/23 04:58:28;;;;;;;5.50;1.60;;;;;;;12.28;64.19;101276.75;4901397;28;97469;-46
2022/10/23 05:00:54;;;;;;;1.70;1.60;;;;;;;12.24;64.47;101285.28;4902435;28;98657;-46
2022/10/23 05:03:21;;;;;;;6.90;1.50;;;;;;;12.23;64.36;101278.22;4903585;28;97122;-46
2022/10/23 05:05:46;;;;;;;4.90;2.00;;;;;;;12.21;64.29;101277.22;4907354;28;97061;-46
2022/10/23 05:08:13;;;;;;;7.47;2.00;;;;;;;12.19;63.98;101282.47;4903745;28;97228;-46
2022/10/23 05:10:38;;;;;;;4.40;2.50;;;;;;;12.17;64.33;101280.19;4898145;28;97416;-47
2022/10/23 05:13:04;;;;;;;6.70;2.33;;;;;;;12.18;64.36;101280.94;4904347;28;97600;-46
2022/10/23 05:15:30;;;;;;;1.60;1.50;;;;;;;12.19;64.53;101290.75;4905021;28;97203;-46
2022/10/23 05:18:00;;;;;;;4.43;2.10;;;;;;;12.18;64.43;101281.72;4901920;28;97138;-46
2022/10/23 05:20:29;;;;;;;5.43;1.67;;;;;;;12.18;64.33;101281.72;4900018;28;99998;-46
2022/10/23 05:22:57;;;;;;;3.07;1.73;;;;;;;12.20;64.26;101275.69;4901718;28;97253;-45
2022/10/23 05:25:22;;;;;;;7.67;2.10;;;;;;;12.18;64.38;101270.69;4904282;28;97031;-46
2022/10/23 05:27:48;;;;;;;4.97;1.80;;;;;;;12.17;64.36;101271.16;4901968;28;97252;-46
2022/10/23 05:30:13;;;;;;;2.03;1.50;;;;;;;12.15;64.62;101276.38;4903025;28;96964;-45
2022/10/23 05:32:39;;;;;;;5.00;1.73;;;;;;;12.15;64.50;101277.16;4901205;28;97537;-45
2022/10/23 05:35:18;;;;;;;3.43;2.20;;;;;;;12.16;64.71;101275.16;4903672;28;97246;-46
2022/10/23 05:37:46;;;;;;;2.97;1.30;;;;;;;12.15;64.51;101266.13;4904168;28;97039;-45
2022/10/23 05:40:12;;;;;;;4.23;2.20;;;;;;;12.10;64.48;101258.53;4899189;28;97752;-46
2022/10/23 05:42:37;;;;;;;8.20;2.17;;;;;;;12.10;64.40;101269.56;4904915;28;97298;-46
2022/10/23 05:45:03;;;;;;;4.83;1.30;;;;;;;12.10;64.65;101268.84;4906077;28;97212;-46
2022/10/23 05:47:30;;;;;;;6.97;2.23;;;;;;;12.10;64.69;101279.88;4902787;28;96880;-46
2022/10/23 05:49:55;;;;;;;3.63;1.60;;;;;;;12.09;64.72;101281.09;4904249;28;101343;-46
2022/10/23 05:52:21;;;;;;;1.87;1.50;;;;;;;12.06;64.87;101271.81;4904529;28;97365;-46
2022/10/23 05:54:46;;;;;;;5.90;1.57;;;;;;;12.06;64.66;101268.31;4904739;28;97021;-46
2022/10/23 05:57:11;;;;;;;3.53;1.90;;;;;;;11.98;64.57;101257.72;4905957;28;109287;-46
2022/10/23 05:59:37;;;;;;;2.50;1.83;;;;;;;11.97;64.60;101253.41;4904586;28;109430;-44
2022/10/23 06:02:02;;;;;;;6.50;1.73;;;;;;;11.92;64.80;101251.38;4905512;28;112635;-46
2022/10/23 06:04:27;;;;;;;6.17;1.70;;;;;;;11.91;64.77;101240.81;4903178;28;97280;-46
2022/10/23 06:06:53;;;;;;;2.30;1.50;;;;;;;11.90;65.11;101248.34;4906568;28;96788;-46
2022/10/23 06:09:18;;;;;;;2.80;1.70;;;;;;;11.91;64.96;101249.09;4906454;28;96957;-46
2022/10/23 06:11:44;;;;;;;6.20;1.40;;;;;;;11.91;64.81;101247.09;4907886;28;97365;-46
2022/10/23 06:14:09;;;;;;;5.47;1.63;;;;;;;11.92;64.82;101239.59;4905599;28;97058;-45
2022/10/23 06:16:35;;;;;;;3.27;1.50;;;;;;;11.89;64.91;101237.81;4903959;28;96917;-46
2022/10/23 06:19:00;;;;;;;2.50;1.77;;;;;;;11.92;64.86;101243.13;4902669;28;97161;-46
2022/10/23 06:21:25;;;;;;;2.33;1.57;;;;;;;11.93;64.79;101239.09;4908892;28;97108;-45
2022/10/23 06:23:51;;;;;;;4.50;1.80;;;;;;;11.97;65.05;101244.38;4906102;28;97340;-45
2022/10/23 06:26:17;;;;;;;5.47;1.57;;;;;;;11.99;64.97;101250.19;4907809;28;97091;-46
2022/10/23 06:28:44;;;;;;;5.50;1.73;;;;;;;11.99;64.93;101242.66;4902417;28;97322;-46
2022/10/23 06:31:14;;;;;;;3.60;1.53;;;;;;;12.06;64.95;101249.75;4904149;28;97794;-44
2022/10/23 06:33:40;;;;;;;5.27;1.30;;;;;;;12.07;64.96;101242.22;4907536;28;96971;-44
2022/10/23 06:36:09;;;;;;;6.20;1.83;;;;;;;12.08;64.78;101238.97;4900856;28;97020;-45
2022/10/23 06:38:39;;;;;;;3.90;1.83;;;;;;;12.09;64.78;101237.75;4904467;28;98042;-45
2022/10/23 06:41:15;;;;;;;8.40;1.80;;;;;;;12.10;65.03;101235.75;4905978;28;99200;-46
2022/10/23 06:43:40;;;;;;;1.80;1.70;;;;;;;12.13;64.97;101237.50;4900490;28;96852;-46
2022/10/23 06:46:05;;;;;;;3.50;1.77;;;;;;;12.17;64.88;101254.59;4903236;28;97162;-45
2022/10/23 06:48:31;;;;;;;7.00;1.60;;;;;;;12.20;65.09;101245.34;4904404;28;96738;-45
2022/10/23 06:50:58;;;;;;;4.63;1.80;;;;;;;12.25;65.10;101236.38;4903021;28;97226;-47
2022/10/23 06:53:23;;;;;;;11.10;1.80;;;;;;;12.29;64.98;101237.66;4903642;28;96863;-46
2022/10/23 06:55:50;;;;;;;3.23;1.97;;;;;;;12.32;65.13;101244.22;4905136;28;96952;-46
2022/10/23 06:58:16;;;;;;;4.73;1.87;;;;;;;12.38;65.04;101242.25;4904143;28;97195;-46
2022/10/23 07:00:41;;;;;;;4.53;1.90;;;;;;;12.44;64.99;101243.03;4899933;28;97251;-46
2022/10/23 07:03:07;;;;;;;2.77;1.67;;;;;;;12.45;65.27;101244.56;4904850;28;109039;-51
2022/10/23 07:05:33;;;;;;;9.07;1.80;;;;;;;12.49;65.10;101251.34;4902250;28;97175;-45
2022/10/23 07:07:58;;;;;;;2.33;2.13;;;;;;;12.55;65.33;101235.59;4904770;28;97118;-46
2022/10/23 07:10:24;;;;;;;2.97;1.80;;;;;;;12.59;65.14;101232.59;4905193;28;113750;-46
2022/10/23 07:12:49;;;;;;;8.47;1.70;;;;;;;12.61;65.25;101236.38;4907375;28;97300;-45
2022/10/23 07:15:15;;;;;;;9.20;1.67;;;;;;;12.65;65.13;101216.81;4903622;28;116172;-45
2022/10/23 07:17:40;;;;;;;16.13;2.10;;;;;;;12.64;65.47;101218.84;4905512;28;97469;-47
2022/10/23 07:20:06;;;;;;;6.20;1.90;;;;;;;12.67;65.51;101225.38;4905939;28;115580;-46
2022/10/23 07:22:32;;;;;;;3.17;1.60;;;;;;;12.70;65.50;101218.88;4901446;28;96989;-46
2022/10/23 07:24:57;;;;;;;6.53;1.70;;;;;;;12.75;65.36;101221.66;4902690;28;97218;-46
2022/10/23 07:27:22;;;;;;;3.00;1.80;;;;;;;12.78;65.57;101220.69;4905027;28;110053;-46
2022/10/23 07:29:51;;;;;;;4.00;1.67;;;;;;;12.88;65.48;101237.06;4905070;28;97721;-46
2022/10/23 07:32:17;;;;;;;5.50;1.40;;;;;;;12.93;65.35;101234.31;4902586;28;97352;-46
2022/10/23 07:34:42;;;;;;;1.67;1.57;;;;;;;12.99;65.32;101228.81;4906112;28;97007;-46
2022/10/23 07:37:08;;;;;;;3.50;2.10;;;;;;;13.03;65.56;101221.06;4905348;28;97002;-46
2022/10/23 07:39:33;;;;;;;2.33;2.13;;;;;;;13.08;65.81;101228.66;4906981;28;98419;-46
2022/10/23 07:41:58;;;;;;;5.47;1.50;;;;;;;13.12;65.49;101221.66;4904208;28;97119;-46
2022/10/23 07:44:24;;;;;;;14.10;2.47;;;;;;;13.17;65.64;101214.63;4906825;28;97471;-47
2022/10/23 07:46:49;;;;;;;3.07;1.87;;;;;;;13.24;65.84;101209.38;4901796;28;96942;-47
2022/10/23 07:49:14;;;;;;;3.00;1.97;;;;;;;13.30;65.93;101206.66;4901683;28;119781;-46
2022/10/23 07:51:40;;;;;;;4.67;1.70;;;;;;;13.34;65.92;101207.91;4902859;28;97272;-46
2022/10/23 07:54:07;;;;;;;6.50;2.00;;;;;;;13.41;65.97;101214.97;4906590;28;97134;-46
2022/10/23 07:56:32;;;;;;;2.13;2.03;;;;;;;13.46;65.97;101203.91;4901814;28;97923;-46
2022/10/23 07:58:57;;;;;;;3.67;2.23;;;;;;;13.52;66.28;101201.16;4905255;28;98025;-45
2022/10/23 08:01:33;;;;;;;4.17;2.27;;;;;;;13.63;66.11;101200.44;4902107;28;103642;-46
2022/10/23 08:03:59;;;;;;;2.60;1.90;;;;;;;13.73;66.09;101198.94;4906008;28;97412;-46
2022/10/23 08:06:25;;;;;;;2.80;1.93;;;;;;;13.80;66.24;101199.22;4902232;28;101942;-45
2022/10/23 08:08:50;;;;;;;9.70;2.27;;;;;;;13.88;66.11;101199.47;4903498;28;96882;-46
2022/10/23 08:11:23;;;;;;;2.50;1.93;;;;;;;13.95;66.16;101201.75;4902308;28;96841;-45
2022/10/23 08:13:49;;;;;;;7.40;1.97;;;;;;;14.02;66.22;101198.47;4906482;28;96927;-46
2022/10/23 08:16:14;;;;;;;2.90;2.07;;;;;;;14.11;66.21;101196.19;4903263;28;97455;-47
2022/10/23 08:18:41;;;;;;;5.50;2.50;;;;;;;14.20;66.32;101197.97;4904174;28;97144;-46
2022/10/23 08:21:07;;;;;;;3.87;1.97;;;;;;;14.27;66.21;101198.22;4904405;28;98373;-46
2022/10/23 08:23:32;;;;;;;13.93;2.27;;;;;;;14.35;66.32;101192.22;4903055;28;96669;-45
2022/10/23 08:26:00;;;;;;;8.93;2.50;;;;;;;14.42;66.28;101192.44;4903000;28;110797;-46
2022/10/23 08:28:29;;;;;;;4.80;2.57;;;;;;;14.50;66.53;101198.22;4902357;28;97426;-46
2022/10/23 08:30:54;;;;;;;4.43;2.20;;;;;;;14.59;66.53;101200.72;4899407;28;98189;-47
2022/10/23 08:33:20;;;;;;;4.83;2.10;;;;;;;14.69;66.55;101205.47;4906353;28;97390;-45
2022/10/23 08:35:46;;;;;;;2.40;1.80;;;;;;;14.78;66.27;101215.53;4903079;28;97078;-46
2022/10/23 08:38:12;;;;;;;3.50;2.03;;;;;;;14.89;66.37;101230.13;4905799;28;97630;-46
2022/10/23 08:40:43;;;;;;;6.00;2.70;;;;;;;14.99;66.49;101231.34;4904582;28;97419;-47
2022/10/23 08:43:25;;;;;;;3.47;2.63;;;;;;;15.08;66.78;101216.44;4903429;28;97114;-46
2022/10/23 08:46:05;;;;;;;3.93;1.97;;;;;;;15.19;66.85;101218.41;4900268;28;96894;-47
2022/10/23 08:48:52;;;;;;;11.30;2.63;;;;;;;15.26;67.10;101215.09;4903228;28;101886;-46
2022/10/23 08:51:24;;;;;;;2.50;1.97;;;;;;;15.35;66.59;101215.56;4902866;28;97663;-47
2022/10/23 08:53:57;;;;;;;4.73;2.00;;;;;;;15.42;66.60;101215.00;4900254;28;96795;-46
2022/10/23 08:56:27;;;;;;;4.20;2.83;;;;;;;15.50;66.79;101204.19;4899207;28;97363;-46
2022/10/23 08:59:04;;;;;;;2.23;1.90;;;;;;;15.60;66.72;101197.03;4901143;28;97157;-46
2022/10/23 09:01:40;;;;;;;2.73;2.10;;;;;;;15.67;66.83;101193.72;4903031;28;97018;-46
2022/10/23 09:04:08;;;;;;;7.53;2.43;;;;;;;15.73;66.63;101189.66;4901679;28;98634;-47
2022/10/23 09:06:40;;;;;;;3.83;2.13;;;;;;;15.83;66.61;101186.56;4902932;28;97291;-46
2022/10/23 09:09:26;;;;;;;2.50;1.73;;;;;;;15.87;66.59;101190.56;4900870;28;97613;-47
2022/10/23 09:12:08;;;;;;;4.63;2.10;;;;;;;15.95;66.86;101176.88;4910715;28;97013;-47
2022/10/23 09:15:01;;;;;;;3.10;2.20;;;;;;;16.02;67.33;101188.19;4898697;28;96921;-47
2022/10/23 09:17:36;;;;;;;2.30;2.10;;;;;;;16.11;66.82;101178.78;4904545;28;100389;-46
2022/10/23 09:20:22;;;;;;;5.03;2.50;;;;;;;16.17;67.26;101168.34;4899663;28;101903;-46
2022/10/23 09:22:52;;;;;;;2.10;1.90;;;;;;;16.23;66.77;101172.59;4905279;28;96730;-47
2022/10/23 09:25:21;;;;;;;3.37;2.40;;;;;;;16.30;66.75;101165.72;4906412;28;96970;-47
2022/10/23 09:27:49;;;;;;;4.63;2.03;;;;;;;16.38;66.87;101164.63;4907770;28;97154;-44
2022/10/23 09:30:27;;;;;;;5.00;2.67;;;;;;;16.51;67.10;101161.25;4902252;28;97344;-49
2022/10/23 09:32:53;;;;;;;6.07;2.37;;;;;;;16.58;66.73;101173.81;4905396;28;97103;-47
2022/10/23 09:35:28;;;;;;;2.33;1.83;;;;;;;16.67;66.88;101173.44;4905835;28;110095;-47
2022/10/23 09:37:53;;;;;;;7.73;2.37;;;;;;;16.76;66.60;101170.31;4907553;28;100517;-46
2022/10/23 09:40:42;;;;;;;3.20;1.87;;;;;;;16.83;67.14;101166.94;4904844;28;98580;-45
2022/10/23 09:43:15;;;;;;;3.33;1.73;;;;;;;16.91;66.79;101165.06;4899304;28;97342;-46
2022/10/23 09:45:41;;;;;;;2.90;2.13;;;;;;;16.99;66.56;101171.56;4904676;28;97237;-45
2022/10/23 09:48:09;;;;;;;7.47;1.80;;;;;;;17.06;66.61;101176.50;4902418;28;97258;-47
2022/10/23 09:50:35;;;;;;;6.40;2.27;;;;;;;17.12;66.44;101168.88;4902993;28;97435;-47
2022/10/23 09:53:01;;;;;;;2.77;1.80;;;;;;;17.19;66.61;101165.47;4907243;28;97052;-47
2022/10/23 09:55:27;;;;;;;2.33;1.83;;;;;;;17.25;66.39;101157.81;4893378;28;98434;-47
2022/10/23 09:57:54;;;;;;;2.57;2.10;;;;;;;17.29;66.40;101146.38;4897881;28;98073;-46
2022/10/23 10:00:21;;;;;;;5.97;2.60;;;;;;;17.35;66.57;101149.84;4903130;28;98152;-47
2022/10/23 10:03:18;;;;;;;3.70;1.83;;;;;;;17.40;66.93;101144.22;4904852;28;97320;-47
2022/10/23 10:05:44;;;;;;;2.07;1.87;;;;;;;17.49;66.46;101148.63;4902621;28;96980;-47
2022/10/23 10:08:28;;;;;;;2.30;1.90;;;;;;;17.57;66.38;101149.53;4903060;28;97787;-47
2022/10/23 10:11:18;;;;;;;4.40;2.30;;;;;;;17.63;66.35;101148.19;4899402;28;102702;-46
2022/10/23 10:13:58;;;;;;;1.47;1.30;;;;;;;17.71;66.16;101149.06;4903305;28;96831;-47
2022/10/23 10:16:50;;;;;;;5.53;2.00;;;;;;;17.76;66.59;101151.00;4904734;28;97786;-47
2022/10/23 10:19:31;;;;;;;2.17;1.40;;;;;;;17.83;66.29;101147.63;4905648;28;101823;-46
2022/10/23 10:22:16;;;;;;;3.87;2.07;;;;;;;17.92;66.27;101146.47;4903198;28;101555;-47
2022/10/23 10:24:59;;;;;;;2.07;1.90;;;;;;;18.02;66.24;101141.97;4903868;28;97216;-47
2022/10/23 10:27:51;;;;;;;2.33;1.60;;;;;;;18.13;66.25;101139.00;4903590;28;97407;-47
2022/10/23 10:30:23;;;;;;;2.60;2.00;;;;;;;18.23;66.04;101134.53;4899364;28;101989;-47
2022/10/23 10:32:55;;;;;;;3.17;1.87;;;;;;;18.33;66.03;101134.84;4902786;28;97316;-47
2022/10/23 10:35:39;;;;;;;3.60;2.10;;;;;;;18.42;65.74;101131.63;4906184;28;97239;-47
2022/10/23 10:38:15;;;;;;;4.50;1.80;;;;;;;18.52;65.85;101121.63;4903767;28;96999;-47
2022/10/23 10:41:02;;;;;;;4.37;1.60;;;;;;;18.59;65.60;101120.94;4905543;28;108964;-47
2022/10/23 10:43:59;;;;;;;1.90;1.63;;;;;;;18.67;65.54;101108.59;4895635;28;100215;-47
2022/10/23 10:47:13;;;;;;;5.20;1.50;;;;;;;18.76;65.32;101101.13;4902423;28;97472;-46
2022/10/23 10:50:31;;;;;;;1.90;1.50;;;;;;;18.82;65.19;101096.16;4901974;28;97187;-47
2022/10/23 10:53:22;;;;;;;2.97;1.50;;;;;;;18.89;65.31;101099.06;4872656;28;102236;-46
2022/10/23 10:55:54;;;;;;;3.93;1.23;;;;;;;18.98;65.05;101087.44;4899065;28;97288;-47
2022/10/23 10:58:30;;;;;;;3.60;2.20;;;;;;;19.05;65.05;101088.81;4901952;28;103049;-47
2022/10/23 11:01:00;;;;;;;6.50;1.63;;;;;;;19.11;65.08;101081.09;4905616;28;97029;-46
2022/10/23 11:03:40;;;;;;;2.80;1.30;;;;;;;19.17;64.97;101090.81;4902756;28;96674;-45
2022/10/23 11:06:13;;;;;;;1.73;1.50;;;;;;;19.22;64.93;101075.97;4905248;28;101674;-45
2022/10/23 11:08:40;;;;;;;6.23;1.97;;;;;;;19.27;64.95;101077.91;4900117;28;104504;-47
2022/10/23 11:11:23;;;;;;;1.60;1.50;;;;;;;19.35;64.59;101078.75;4898008;28;98344;-47
2022/10/23 11:13:50;;;;;;;3.83;1.20;;;;;;;19.38;64.96;101066.50;4900614;28;100555;-46
2022/10/23 11:16:18;;;;;;;4.93;1.30;;;;;;;19.48;64.69;101068.84;4904274;28;96727;-47
2022/10/23 11:19:11;;;;;;;4.17;1.40;;;;;;;19.54;64.48;101063.84;4904738;28;96642;-45
2022/10/23 11:21:50;;;;;;;1.80;1.50;;;;;;;19.57;64.21;101065.56;4904900;28;97925;-46
2022/10/23 11:24:40;;;;;;;4.17;1.53;;;;;;;19.64;64.13;101057.25;4896332;28;97597;-47
2022/10/23 11:28:01;;;;;;;6.00;1.10;;;;;;;19.67;64.12;101053.38;4903909;28;100256;-47
2022/10/23 11:30:46;;;;;;;5.70;1.90;;;;;;;19.73;64.26;101044.84;4825196;29;97274;-47
2022/10/23 11:33:51;;;;;;;1.67;1.57;;;;;;;19.77;63.81;101045.22;4895702;28;97202;-47
2022/10/23 11:36:19;;;;;;;3.63;1.40;;;;;;;19.80;63.93;101039.31;4900307;28;103482;-47
2022/10/23 11:38:50;;;;;;;7.10;1.50;;;;;;;19.85;63.86;101040.47;4904599;28;97213;-47
2022/10/23 11:41:19;;;;;;;7.23;1.30;;;;;;;19.88;63.91;101028.19;4905092;28;97000;-47